sensor_id;sensor_type;location;lat;lon;timestamp;temperature;humidity
20700;DHT22;10511;51.232;9.420;2023-11-19T00:00:07;6.40;99.90
20700;DHT22;10511;51.232;9.420;2023-11-19T00:02:37;6.40;99.90
20700;DHT22;10511;51.232;9.420;2023-11-19T00:05:04;6.50;99.90
20700;DHT22;10511;51.232;9.420;2023-11-19T00:07:34;6.50;99.90
20700;DHT22;10511;51.232;9.420;2023-11-19T00:10:01;6.50;99.90
20700;DHT22;10511;51.232;9.420;2023-11-19T00:12:37;6.50;99.90
20700;DHT22;10511;51.232;9.420;2023-11-19T00:15:06;6.50;99.90
20700;DHT22;10511;51.232;9.420;2023-11-19T00:17:37;6.50;99.90
20700;DHT22;10511;51.232;9.420;2023-11-19T00:20:05;6.50;99.90
20700;DHT22;10511;51.232;9.420;2023-11-19T00:22:33;6.50;99.90
20700;DHT22;10511;51.232;9.420;2023-11-19T00:25:00;6.50;99.90
20700;DHT22;10511;51.232;9.420;2023-11-19T00:27:27;6.50;99.90
20700;DHT22;10511;51.232;9.420;2023-11-19T00:29:56;6.50;99.90
20700;DHT22;10511;51.232;9.420;2023-11-19T00:32:22;6.50;99.90
20700;DHT22;10511;51.232;9.420;2023-11-19T00:34:50;6.50;99.90
20700;DHT22;10511;51.232;9.420;2023-11-19T00:37:17;6.60;99.90
20700;DHT22;10511;51.232;9.420;2023-11-19T00:39:44;6.60;99.90
20700;DHT22;10511;51.232;9.420;2023-11-19T00:42:11;6.60;99.90
20700;DHT22;10511;51.232;9.420;2023-11-19T00:44:39;6.60;99.90
20700;DHT22;10511;51.232;9.420;2023-11-19T00:47:08;6.60;99.90
20700;DHT22;10511;51.232;9.420;2023-11-19T00:49:35;6.60;99.90
20700;DHT22;10511;51.232;9.420;2023-11-19T00:52:03;6.60;99.90
20700;DHT22;10511;51.232;9.420;2023-11-19T00:54:30;6.60;99.90
20700;DHT22;10511;51.232;9.420;2023-11-19T00:56:56;6.60;99.90
20700;DHT22;10511;51.232;9.420;2023-11-19T00:59:23;6.60;99.90
20700;DHT22;10511;51.232;9.420;2023-11-19T01:01:50;6.70;99.90
20700;DHT22;10511;51.232;9.420;2023-11-19T01:04:19;6.70;99.90
20700;DHT22;10511;51.232;9.420;2023-11-19T01:06:46;6.70;99.90
20700;DHT22;10511;51.232;9.420;2023-11-19T01:09:13;6.70;99.90
20700;DHT22;10511;51.232;9.420;2023-11-19T01:11:40;6.70;99.90
20700;DHT22;10511;51.232;9.420;2023-11-19T01:14:07;6.70;99.90
20700;DHT22;10511;51.232;9.420;2023-11-19T01:16:34;6.70;99.90
20700;DHT22;10511;51.232;9.420;2023-11-19T01:19:01;6.70;99.90
20700;DHT22;10511;51.232;9.420;2023-11-19T01:21:31;6.70;99.90
20700;DHT22;10511;51.232;9.420;2023-11-19T01:23:58;6.80;99.90
20700;DHT22;10511;51.232;9.420;2023-11-19T01:26:26;6.80;99.90
20700;DHT22;10511;51.232;9.420;2023-11-19T01:28:53;6.80;99.90
20700;DHT22;10511;51.232;9.420;2023-11-19T01:31:20;6.80;99.90
20700;DHT22;10511;51.232;9.420;2023-11-19T01:33:47;6.80;99.90
20700;DHT22;10511;51.232;9.420;2023-11-19T01:36:14;6.90;99.90
20700;DHT22;10511;51.232;9.420;2023-11-19T01:38:42;6.80;99.90
20700;DHT22;10511;51.232;9.420;2023-11-19T01:41:10;6.90;99.90
20700;DHT22;10511;51.232;9.420;2023-11-19T01:43:38;6.90;99.90
20700;DHT22;10511;51.232;9.420;2023-11-19T01:46:07;6.90;99.90
20700;DHT22;10511;51.232;9.420;2023-11-19T01:48:37;6.90;99.90
20700;DHT22;10511;51.232;9.420;2023-11-19T01:51:07;6.90;99.90
20700;DHT22;10511;51.232;9.420;2023-11-19T01:53:36;6.90;99.90
20700;DHT22;10511;51.232;9.420;2023-11-19T01:56:07;6.90;99.90
20700;DHT22;10511;51.232;9.420;2023-11-19T01:58:36;6.90;99.90
20700;DHT22;10511;51.232;9.420;2023-11-19T02:01:05;7.00;99.90
20700;DHT22;10511;51.232;9.420;2023-11-19T02:03:33;7.00;99.90
20700;DHT22;10511;51.232;9.420;2023-11-19T02:06:00;7.00;99.90
20700;DHT22;10511;51.232;9.420;2023-11-19T02:08:28;7.00;99.90
20700;DHT22;10511;51.232;9.420;2023-11-19T02:10:55;7.00;99.90
20700;DHT22;10511;51.232;9.420;2023-11-19T02:13:24;7.00;99.90
20700;DHT22;10511;51.232;9.420;2023-11-19T02:15:52;7.10;99.90
20700;DHT22;10511;51.232;9.420;2023-11-19T02:18:20;7.00;99.90
20700;DHT22;10511;51.232;9.420;2023-11-19T02:20:47;7.10;99.90
20700;DHT22;10511;51.232;9.420;2023-11-19T02:23:15;7.10;99.90
20700;DHT22;10511;51.232;9.420;2023-11-19T02:25:46;7.20;99.90
20700;DHT22;10511;51.232;9.420;2023-11-19T02:28:17;7.20;99.90
20700;DHT22;10511;51.232;9.420;2023-11-19T02:30:44;7.20;99.90
20700;DHT22;10511;51.232;9.420;2023-11-19T02:33:11;7.20;99.90
20700;DHT22;10511;51.232;9.420;2023-11-19T02:35:38;7.30;99.90
20700;DHT22;10511;51.232;9.420;2023-11-19T02:38:06;7.30;99.90
20700;DHT22;10511;51.232;9.420;2023-11-19T02:40:33;7.30;99.90
20700;DHT22;10511;51.232;9.420;2023-11-19T02:43:00;7.30;99.90
20700;DHT22;10511;51.232;9.420;2023-11-19T02:45:32;7.30;99.90
20700;DHT22;10511;51.232;9.420;2023-11-19T02:47:59;7.30;99.90
20700;DHT22;10511;51.232;9.420;2023-11-19T02:50:27;7.30;99.90
20700;DHT22;10511;51.232;9.420;2023-11-19T02:52:55;7.30;99.90
20700;DHT22;10511;51.232;9.420;2023-11-19T02:55:23;7.40;99.90
20700;DHT22;10511;51.232;9.420;2023-11-19T02:57:50;7.30;99.90
20700;DHT22;10511;51.232;9.420;2023-11-19T03:00:20;7.40;99.90
20700;DHT22;10511;51.232;9.420;2023-11-19T03:02:58;7.40;99.90
20700;DHT22;10511;51.232;9.420;2023-11-19T03:05:31;7.40;99.90
20700;DHT22;10511;51.232;9.420;2023-11-19T03:07:58;7.40;99.90
20700;DHT22;10511;51.232;9.420;2023-11-19T03:10:24;7.40;99.90
20700;DHT22;10511;51.232;9.420;2023-11-19T03:12:51;7.40;99.90
20700;DHT22;10511;51.232;9.420;2023-11-19T03:15:20;7.50;99.90
20700;DHT22;10511;51.232;9.420;2023-11-19T03:17:48;7.50;99.90
20700;DHT22;10511;51.232;9.420;2023-11-19T03:20:16;7.50;99.90
20700;DHT22;10511;51.232;9.420;2023-11-19T03:22:43;7.50;99.90
20700;DHT22;10511;51.232;9.420;2023-11-19T03:25:10;7.50;99.90
20700;DHT22;10511;51.232;9.420;2023-11-19T03:27:39;7.50;99.90
20700;DHT22;10511;51.232;9.420;2023-11-19T03:30:08;7.50;99.90
20700;DHT22;10511;51.232;9.420;2023-11-19T03:32:35;7.50;99.90
20700;DHT22;10511;51.232;9.420;2023-11-19T03:35:02;7.60;99.90
20700;DHT22;10511;51.232;9.420;2023-11-19T03:37:31;7.60;99.90
20700;DHT22;10511;51.232;9.420;2023-11-19T03:39:59;7.60;99.90
20700;DHT22;10511;51.232;9.420;2023-11-19T03:42:26;7.60;99.90
20700;DHT22;10511;51.232;9.420;2023-11-19T03:44:53;7.70;99.90
20700;DHT22;10511;51.232;9.420;2023-11-19T03:47:20;7.60;99.90
20700;DHT22;10511;51.232;9.420;2023-11-19T03:49:48;7.60;99.90
20700;DHT22;10511;51.232;9.420;2023-11-19T03:52:15;7.70;99.90
20700;DHT22;10511;51.232;9.420;2023-11-19T03:54:44;7.70;99.90
20700;DHT22;10511;51.232;9.420;2023-11-19T03:57:11;7.70;99.90
20700;DHT22;10511;51.232;9.420;2023-11-19T03:59:39;7.70;99.90
20700;DHT22;10511;51.232;9.420;2023-11-19T04:02:06;7.70;99.90
20700;DHT22;10511;51.232;9.420;2023-11-19T04:04:33;7.70;99.90
20700;DHT22;10511;51.232;9.420;2023-11-19T04:07:00;7.70;99.90
20700;DHT22;10511;51.232;9.420;2023-11-19T04:09:28;7.70;99.90
20700;DHT22;10511;51.232;9.420;2023-11-19T04:11:57;7.80;99.90
20700;DHT22;10511;51.232;9.420;2023-11-19T04:14:24;7.80;99.90
20700;DHT22;10511;51.232;9.420;2023-11-19T04:16:51;7.80;99.90
20700;DHT22;10511;51.232;9.420;2023-11-19T04:19:18;7.80;99.90
20700;DHT22;10511;51.232;9.420;2023-11-19T04:21:45;7.80;99.90
20700;DHT22;10511;51.232;9.420;2023-11-19T04:24:12;7.80;99.90
20700;DHT22;10511;51.232;9.420;2023-11-19T04:26:43;7.80;99.90
20700;DHT22;10511;51.232;9.420;2023-11-19T04:29:13;7.90;99.90
20700;DHT22;10511;51.232;9.420;2023-11-19T04:31:41;7.90;99.90
20700;DHT22;10511;51.232;9.420;2023-11-19T04:34:08;7.90;99.90
20700;DHT22;10511;51.232;9.420;2023-11-19T04:36:35;7.90;99.90
20700;DHT22;10511;51.232;9.420;2023-11-19T04:39:03;8.00;99.90
20700;DHT22;10511;51.232;9.420;2023-11-19T04:41:34;8.00;99.90
20700;DHT22;10511;51.232;9.420;2023-11-19T04:44:01;8.00;99.90
20700;DHT22;10511;51.232;9.420;2023-11-19T04:46:29;8.00;99.90
20700;DHT22;10511;51.232;9.420;2023-11-19T04:48:56;8.10;99.90
20700;DHT22;10511;51.232;9.420;2023-11-19T04:51:23;8.00;99.90
20700;DHT22;10511;51.232;9.420;2023-11-19T04:53:50;8.00;99.90
20700;DHT22;10511;51.232;9.420;2023-11-19T04:56:16;8.10;99.90
20700;DHT22;10511;51.232;9.420;2023-11-19T04:58:45;8.10;99.90
20700;DHT22;10511;51.232;9.420;2023-11-19T05:01:14;8.10;99.90
20700;DHT22;10511;51.232;9.420;2023-11-19T05:03:43;8.20;99.90
20700;DHT22;10511;51.232;9.420;2023-11-19T05:06:11;8.20;99.90
20700;DHT22;10511;51.232;9.420;2023-11-19T05:08:37;8.20;99.90
20700;DHT22;10511;51.232;9.420;2023-11-19T05:11:05;8.20;99.90
20700;DHT22;10511;51.232;9.420;2023-11-19T05:13:32;8.20;99.90
20700;DHT22;10511;51.232;9.420;2023-11-19T05:15:59;8.20;99.90
20700;DHT22;10511;51.232;9.420;2023-11-19T05:18:26;8.30;99.90
20700;DHT22;10511;51.232;9.420;2023-11-19T05:20:54;8.20;99.90
20700;DHT22;10511;51.232;9.420;2023-11-19T05:23:21;8.30;99.90
20700;DHT22;10511;51.232;9.420;2023-11-19T05:25:48;8.30;99.90
20700;DHT22;10511;51.232;9.420;2023-11-19T05:28:15;8.30;99.90
20700;DHT22;10511;51.232;9.420;2023-11-19T05:30:42;8.30;99.90
20700;DHT22;10511;51.232;9.420;2023-11-19T05:33:10;8.20;99.90
20700;DHT22;10511;51.232;9.420;2023-11-19T05:35:37;8.30;99.90
20700;DHT22;10511;51.232;9.420;2023-11-19T05:38:05;8.30;99.90
20700;DHT22;10511;51.232;9.420;2023-11-19T05:40:32;8.30;99.90
20700;DHT22;10511;51.232;9.420;2023-11-19T05:42:59;8.30;99.90
20700;DHT22;10511;51.232;9.420;2023-11-19T05:45:26;8.40;99.90
20700;DHT22;10511;51.232;9.420;2023-11-19T05:47:53;8.40;99.90
20700;DHT22;10511;51.232;9.420;2023-11-19T05:50:20;8.40;99.90
20700;DHT22;10511;51.232;9.420;2023-11-19T05:52:47;8.40;99.90
20700;DHT22;10511;51.232;9.420;2023-11-19T05:55:15;8.40;99.90
20700;DHT22;10511;51.232;9.420;2023-11-19T05:57:42;8.50;99.90
20700;DHT22;10511;51.232;9.420;2023-11-19T06:00:11;8.50;99.90
20700;DHT22;10511;51.232;9.420;2023-11-19T06:02:40;8.50;99.90
20700;DHT22;10511;51.232;9.420;2023-11-19T06:05:08;8.50;99.90
20700;DHT22;10511;51.232;9.420;2023-11-19T06:07:35;8.50;99.90
20700;DHT22;10511;51.232;9.420;2023-11-19T06:10:05;8.60;99.90
20700;DHT22;10511;51.232;9.420;2023-11-19T06:12:34;8.60;99.90
20700;DHT22;10511;51.232;9.420;2023-11-19T06:15:04;8.60;99.90
20700;DHT22;10511;51.232;9.420;2023-11-19T06:17:32;8.70;99.90
20700;DHT22;10511;51.232;9.420;2023-11-19T06:19:59;8.70;99.90
20700;DHT22;10511;51.232;9.420;2023-11-19T06:22:26;8.70;99.90
20700;DHT22;10511;51.232;9.420;2023-11-19T06:24:52;8.60;99.90
20700;DHT22;10511;51.232;9.420;2023-11-19T06:27:19;8.70;99.90
20700;DHT22;10511;51.232;9.420;2023-11-19T06:29:47;8.70;99.90
20700;DHT22;10511;51.232;9.420;2023-11-19T06:32:15;8.70;99.90
20700;DHT22;10511;51.232;9.420;2023-11-19T06:34:42;8.80;99.90
20700;DHT22;10511;51.232;9.420;2023-11-19T06:37:08;8.80;99.90
20700;DHT22;10511;51.232;9.420;2023-11-19T06:39:35;8.80;99.90
20700;DHT22;10511;51.232;9.420;2023-11-19T06:42:03;8.80;99.90
20700;DHT22;10511;51.232;9.420;2023-11-19T06:44:30;8.80;99.90
20700;DHT22;10511;51.232;9.420;2023-11-19T06:46:59;8.80;99.90
20700;DHT22;10511;51.232;9.420;2023-11-19T06:49:25;8.70;99.90
20700;DHT22;10511;51.232;9.420;2023-11-19T06:51:52;8.70;99.90
20700;DHT22;10511;51.232;9.420;2023-11-19T06:54:19;8.70;99.90
20700;DHT22;10511;51.232;9.420;2023-11-19T06:56:46;8.70;99.90
20700;DHT22;10511;51.232;9.420;2023-11-19T06:59:13;8.60;99.90
20700;DHT22;10511;51.232;9.420;2023-11-19T07:01:41;8.60;99.90
20700;DHT22;10511;51.232;9.420;2023-11-19T07:04:11;8.60;99.90
20700;DHT22;10511;51.232;9.420;2023-11-19T07:06:39;8.50;99.90
20700;DHT22;10511;51.232;9.420;2023-11-19T07:09:07;8.50;99.90
20700;DHT22;10511;51.232;9.420;2023-11-19T07:11:36;8.60;99.90
20700;DHT22;10511;51.232;9.420;2023-11-19T07:14:04;8.60;99.90
20700;DHT22;10511;51.232;9.420;2023-11-19T07:16:32;8.60;99.90
20700;DHT22;10511;51.232;9.420;2023-11-19T07:18:59;8.60;99.90
20700;DHT22;10511;51.232;9.420;2023-11-19T07:21:28;8.60;99.90
20700;DHT22;10511;51.232;9.420;2023-11-19T07:23:55;8.60;99.90
20700;DHT22;10511;51.232;9.420;2023-11-19T07:26:22;8.60;99.90
20700;DHT22;10511;51.232;9.420;2023-11-19T07:28:49;8.60;99.90
20700;DHT22;10511;51.232;9.420;2023-11-19T07:31:16;8.60;99.90
20700;DHT22;10511;51.232;9.420;2023-11-19T07:33:44;8.60;99.90
20700;DHT22;10511;51.232;9.420;2023-11-19T07:36:12;8.70;99.90
20700;DHT22;10511;51.232;9.420;2023-11-19T07:38:40;8.70;99.90
20700;DHT22;10511;51.232;9.420;2023-11-19T07:41:07;8.80;99.90
20700;DHT22;10511;51.232;9.420;2023-11-19T07:43:35;8.90;99.90
20700;DHT22;10511;51.232;9.420;2023-11-19T07:46:02;8.90;99.90
20700;DHT22;10511;51.232;9.420;2023-11-19T07:48:30;9.10;99.90
20700;DHT22;10511;51.232;9.420;2023-11-19T07:50:57;9.10;99.90
20700;DHT22;10511;51.232;9.420;2023-11-19T07:53:24;9.20;99.90
20700;DHT22;10511;51.232;9.420;2023-11-19T07:55:52;9.30;99.90
20700;DHT22;10511;51.232;9.420;2023-11-19T07:58:21;9.40;99.90
20700;DHT22;10511;51.232;9.420;2023-11-19T08:00:48;9.40;99.90
20700;DHT22;10511;51.232;9.420;2023-11-19T08:03:15;9.50;99.90
20700;DHT22;10511;51.232;9.420;2023-11-19T08:05:42;9.50;99.90
20700;DHT22;10511;51.232;9.420;2023-11-19T08:08:09;9.50;99.90
20700;DHT22;10511;51.232;9.420;2023-11-19T08:10:36;9.50;99.90
20700;DHT22;10511;51.232;9.420;2023-11-19T08:13:05;9.60;99.90
20700;DHT22;10511;51.232;9.420;2023-11-19T08:15:32;9.60;99.90
20700;DHT22;10511;51.232;9.420;2023-11-19T08:17:58;9.60;99.90
20700;DHT22;10511;51.232;9.420;2023-11-19T08:20:25;9.60;99.90
20700;DHT22;10511;51.232;9.420;2023-11-19T08:22:52;9.60;99.90
20700;DHT22;10511;51.232;9.420;2023-11-19T08:25:19;9.60;99.90
20700;DHT22;10511;51.232;9.420;2023-11-19T08:27:46;9.60;99.90
20700;DHT22;10511;51.232;9.420;2023-11-19T08:30:15;9.60;99.90
20700;DHT22;10511;51.232;9.420;2023-11-19T08:32:42;9.70;99.90
20700;DHT22;10511;51.232;9.420;2023-11-19T08:35:09;9.70;99.90
20700;DHT22;10511;51.232;9.420;2023-11-19T08:37:36;9.70;99.90
20700;DHT22;10511;51.232;9.420;2023-11-19T08:40:05;9.80;99.90
20700;DHT22;10511;51.232;9.420;2023-11-19T08:42:32;9.80;99.90
20700;DHT22;10511;51.232;9.420;2023-11-19T08:44:59;9.90;99.90
20700;DHT22;10511;51.232;9.420;2023-11-19T08:47:28;10.00;99.90
20700;DHT22;10511;51.232;9.420;2023-11-19T08:49:55;10.10;99.90
20700;DHT22;10511;51.232;9.420;2023-11-19T08:52:21;10.10;99.90
20700;DHT22;10511;51.232;9.420;2023-11-19T08:54:48;10.10;99.90
20700;DHT22;10511;51.232;9.420;2023-11-19T08:57:15;10.20;99.90
20700;DHT22;10511;51.232;9.420;2023-11-19T08:59:42;10.20;99.90
20700;DHT22;10511;51.232;9.420;2023-11-19T09:02:11;10.30;99.90
20700;DHT22;10511;51.232;9.420;2023-11-19T09:04:39;10.40;99.90
20700;DHT22;10511;51.232;9.420;2023-11-19T09:07:06;10.50;99.90
20700;DHT22;10511;51.232;9.420;2023-11-19T09:09:35;10.70;99.90
20700;DHT22;10511;51.232;9.420;2023-11-19T09:12:03;10.80;99.90
20700;DHT22;10511;51.232;9.420;2023-11-19T09:14:31;11.10;99.90
20700;DHT22;10511;51.232;9.420;2023-11-19T09:16:58;11.20;99.90
20700;DHT22;10511;51.232;9.420;2023-11-19T09:19:25;11.30;99.90
20700;DHT22;10511;51.232;9.420;2023-11-19T09:21:54;11.30;99.90
20700;DHT22;10511;51.232;9.420;2023-11-19T09:24:21;11.40;99.90
20700;DHT22;10511;51.232;9.420;2023-11-19T09:26:48;11.50;99.90
20700;DHT22;10511;51.232;9.420;2023-11-19T09:29:14;11.50;99.90
20700;DHT22;10511;51.232;9.420;2023-11-19T09:31:42;11.50;99.90
20700;DHT22;10511;51.232;9.420;2023-11-19T09:34:09;11.30;99.90
20700;DHT22;10511;51.232;9.420;2023-11-19T09:36:36;11.30;99.90
20700;DHT22;10511;51.232;9.420;2023-11-19T09:39:06;11.30;99.90
20700;DHT22;10511;51.232;9.420;2023-11-19T09:41:34;11.20;99.90
20700;DHT22;10511;51.232;9.420;2023-11-19T09:44:02;11.30;99.90
20700;DHT22;10511;51.232;9.420;2023-11-19T09:46:30;11.40;99.90
20700;DHT22;10511;51.232;9.420;2023-11-19T09:48:58;11.40;99.90
20700;DHT22;10511;51.232;9.420;2023-11-19T09:51:26;11.40;99.90
20700;DHT22;10511;51.232;9.420;2023-11-19T09:53:53;11.50;99.90
20700;DHT22;10511;51.232;9.420;2023-11-19T09:56:23;11.60;99.90
20700;DHT22;10511;51.232;9.420;2023-11-19T09:58:50;11.70;99.90
20700;DHT22;10511;51.232;9.420;2023-11-19T10:01:18;11.70;99.90
20700;DHT22;10511;51.232;9.420;2023-11-19T10:03:47;11.70;99.90
20700;DHT22;10511;51.232;9.420;2023-11-19T10:06:15;11.80;99.90
20700;DHT22;10511;51.232;9.420;2023-11-19T10:08:44;11.80;99.90
20700;DHT22;10511;51.232;9.420;2023-11-19T10:11:12;11.90;99.90
20700;DHT22;10511;51.232;9.420;2023-11-19T10:13:42;12.00;99.90
20700;DHT22;10511;51.232;9.420;2023-11-19T10:16:13;12.10;99.90
20700;DHT22;10511;51.232;9.420;2023-11-19T10:18:44;12.10;99.90
20700;DHT22;10511;51.232;9.420;2023-11-19T10:21:12;12.10;99.90
20700;DHT22;10511;51.232;9.420;2023-11-19T10:23:52;12.10;99.90
20700;DHT22;10511;51.232;9.420;2023-11-19T10:26:20;12.20;99.90
20700;DHT22;10511;51.232;9.420;2023-11-19T10:28:48;12.30;99.90
20700;DHT22;10511;51.232;9.420;2023-11-19T10:31:16;12.30;99.90
20700;DHT22;10511;51.232;9.420;2023-11-19T10:33:44;12.40;99.90
20700;DHT22;10511;51.232;9.420;2023-11-19T10:36:12;12.40;99.90
20700;DHT22;10511;51.232;9.420;2023-11-19T10:38:39;12.40;99.90
20700;DHT22;10511;51.232;9.420;2023-11-19T10:41:06;12.40;99.90
20700;DHT22;10511;51.232;9.420;2023-11-19T10:43:43;12.30;99.90
20700;DHT22;10511;51.232;9.420;2023-11-19T10:46:12;12.20;99.90
20700;DHT22;10511;51.232;9.420;2023-11-19T10:48:39;12.10;99.90
20700;DHT22;10511;51.232;9.420;2023-11-19T10:51:07;12.10;99.90
20700;DHT22;10511;51.232;9.420;2023-11-19T10:53:37;12.10;99.90
20700;DHT22;10511;51.232;9.420;2023-11-19T10:56:08;12.10;99.90
20700;DHT22;10511;51.232;9.420;2023-11-19T10:58:36;12.10;99.90
20700;DHT22;10511;51.232;9.420;2023-11-19T11:01:11;12.00;99.90
20700;DHT22;10511;51.232;9.420;2023-11-19T11:03:40;12.10;99.90
20700;DHT22;10511;51.232;9.420;2023-11-19T11:06:07;12.30;99.90
20700;DHT22;10511;51.232;9.420;2023-11-19T11:08:37;12.50;99.90
20700;DHT22;10511;51.232;9.420;2023-11-19T11:11:05;12.50;99.90
20700;DHT22;10511;51.232;9.420;2023-11-19T11:13:33;12.40;99.90
20700;DHT22;10511;51.232;9.420;2023-11-19T11:16:00;12.30;99.90
20700;DHT22;10511;51.232;9.420;2023-11-19T11:18:31;12.30;99.90
20700;DHT22;10511;51.232;9.420;2023-11-19T11:21:01;12.30;99.90
20700;DHT22;10511;51.232;9.420;2023-11-19T11:23:47;12.30;99.90
20700;DHT22;10511;51.232;9.420;2023-11-19T11:26:50;12.20;99.90
20700;DHT22;10511;51.232;9.420;2023-11-19T11:29:24;12.10;99.90
20700;DHT22;10511;51.232;9.420;2023-11-19T11:32:00;12.10;99.90
20700;DHT22;10511;51.232;9.420;2023-11-19T11:35:01;12.10;99.90
20700;DHT22;10511;51.232;9.420;2023-11-19T11:37:33;12.10;99.90
20700;DHT22;10511;51.232;9.420;2023-11-19T11:40:02;12.10;99.90
20700;DHT22;10511;51.232;9.420;2023-11-19T11:42:36;12.10;99.90
20700;DHT22;10511;51.232;9.420;2023-11-19T11:45:04;12.10;99.90
20700;DHT22;10511;51.232;9.420;2023-11-19T11:50:56;12.10;99.90
20700;DHT22;10511;51.232;9.420;2023-11-19T11:53:25;12.10;99.90
20700;DHT22;10511;51.232;9.420;2023-11-19T11:55:54;12.10;99.90
20700;DHT22;10511;51.232;9.420;2023-11-19T11:58:25;12.10;99.90
20700;DHT22;10511;51.232;9.420;2023-11-19T12:00:52;12.10;99.90
20700;DHT22;10511;51.232;9.420;2023-11-19T12:03:21;12.20;99.90
20700;DHT22;10511;51.232;9.420;2023-11-19T12:05:50;12.30;99.90
20700;DHT22;10511;51.232;9.420;2023-11-19T12:08:20;12.20;99.90
20700;DHT22;10511;51.232;9.420;2023-11-19T12:10:49;12.20;99.90
20700;DHT22;10511;51.232;9.420;2023-11-19T12:13:16;12.20;99.90
20700;DHT22;10511;51.232;9.420;2023-11-19T12:16:09;12.10;99.90
20700;DHT22;10511;51.232;9.420;2023-11-19T12:18:39;12.10;99.90
20700;DHT22;10511;51.232;9.420;2023-11-19T12:21:08;12.10;99.90
20700;DHT22;10511;51.232;9.420;2023-11-19T12:23:45;12.10;99.90
20700;DHT22;10511;51.232;9.420;2023-11-19T12:26:35;12.10;99.90
20700;DHT22;10511;51.232;9.420;2023-11-19T12:29:02;12.10;99.90
20700;DHT22;10511;51.232;9.420;2023-11-19T12:31:33;12.10;99.90
20700;DHT22;10511;51.232;9.420;2023-11-19T12:34:07;12.00;99.90
20700;DHT22;10511;51.232;9.420;2023-11-19T12:36:39;12.00;99.90
20700;DHT22;10511;51.232;9.420;2023-11-19T12:39:07;12.00;99.90
20700;DHT22;10511;51.232;9.420;2023-11-19T12:41:51;11.90;99.90
20700;DHT22;10511;51.232;9.420;2023-11-19T12:44:18;11.80;99.90
20700;DHT22;10511;51.232;9.420;2023-11-19T12:46:45;12.00;99.90
20700;DHT22;10511;51.232;9.420;2023-11-19T12:49:12;12.00;99.90
20700;DHT22;10511;51.232;9.420;2023-11-19T12:51:40;12.00;99.90
20700;DHT22;10511;51.232;9.420;2023-11-19T12:54:07;12.00;99.90
20700;DHT22;10511;51.232;9.420;2023-11-19T12:56:34;12.00;99.90
20700;DHT22;10511;51.232;9.420;2023-11-19T12:59:10;12.10;99.90
20700;DHT22;10511;51.232;9.420;2023-11-19T13:01:38;12.10;99.90
20700;DHT22;10511;51.232;9.420;2023-11-19T13:04:16;12.10;99.90
20700;DHT22;10511;51.232;9.420;2023-11-19T13:06:46;12.10;99.90
20700;DHT22;10511;51.232;9.420;2023-11-19T13:09:22;12.10;99.90
20700;DHT22;10511;51.232;9.420;2023-11-19T13:11:50;12.10;99.90
20700;DHT22;10511;51.232;9.420;2023-11-19T13:14:17;12.10;99.90
20700;DHT22;10511;51.232;9.420;2023-11-19T13:16:44;12.10;99.90
20700;DHT22;10511;51.232;9.420;2023-11-19T13:19:12;12.10;99.90
20700;DHT22;10511;51.232;9.420;2023-11-19T13:21:40;12.00;99.90
20700;DHT22;10511;51.232;9.420;2023-11-19T13:24:09;12.00;99.90
20700;DHT22;10511;51.232;9.420;2023-11-19T13:26:36;12.00;99.90
20700;DHT22;10511;51.232;9.420;2023-11-19T13:29:02;12.00;99.90
20700;DHT22;10511;51.232;9.420;2023-11-19T13:31:30;12.00;99.90
20700;DHT22;10511;51.232;9.420;2023-11-19T13:33:56;12.00;99.90
20700;DHT22;10511;51.232;9.420;2023-11-19T13:36:24;12.00;99.90
20700;DHT22;10511;51.232;9.420;2023-11-19T13:38:51;12.00;99.90
20700;DHT22;10511;51.232;9.420;2023-11-19T13:41:25;11.90;99.90
20700;DHT22;10511;51.232;9.420;2023-11-19T13:43:52;11.70;99.90
20700;DHT22;10511;51.232;9.420;2023-11-19T13:46:20;11.60;99.90
20700;DHT22;10511;51.232;9.420;2023-11-19T13:48:47;11.50;99.90
20700;DHT22;10511;51.232;9.420;2023-11-19T13:51:15;11.40;99.90
20700;DHT22;10511;51.232;9.420;2023-11-19T13:53:42;11.40;99.90
20700;DHT22;10511;51.232;9.420;2023-11-19T13:56:10;11.20;99.90
20700;DHT22;10511;51.232;9.420;2023-11-19T13:58:38;11.20;99.90
20700;DHT22;10511;51.232;9.420;2023-11-19T14:01:06;11.10;99.90
20700;DHT22;10511;51.232;9.420;2023-11-19T14:03:33;11.00;99.90
20700;DHT22;10511;51.232;9.420;2023-11-19T14:06:00;11.00;99.90
20700;DHT22;10511;51.232;9.420;2023-11-19T14:08:28;11.00;99.90
20700;DHT22;10511;51.232;9.420;2023-11-19T14:10:55;10.90;99.90
20700;DHT22;10511;51.232;9.420;2023-11-19T14:13:34;10.80;99.90
20700;DHT22;10511;51.232;9.420;2023-11-19T14:16:03;10.80;99.90
20700;DHT22;10511;51.232;9.420;2023-11-19T14:18:33;10.80;99.90
20700;DHT22;10511;51.232;9.420;2023-11-19T14:21:00;10.80;99.90
20700;DHT22;10511;51.232;9.420;2023-11-19T14:23:29;10.90;99.90
20700;DHT22;10511;51.232;9.420;2023-11-19T14:25:55;10.90;99.90
20700;DHT22;10511;51.232;9.420;2023-11-19T14:28:22;10.80;99.90
20700;DHT22;10511;51.232;9.420;2023-11-19T14:30:50;10.80;99.90
20700;DHT22;10511;51.232;9.420;2023-11-19T14:33:23;10.80;99.90
20700;DHT22;10511;51.232;9.420;2023-11-19T14:35:50;10.80;99.90
20700;DHT22;10511;51.232;9.420;2023-11-19T14:38:17;10.90;99.90
20700;DHT22;10511;51.232;9.420;2023-11-19T14:40:44;10.90;99.90
20700;DHT22;10511;51.232;9.420;2023-11-19T14:43:11;10.80;99.90
20700;DHT22;10511;51.232;9.420;2023-11-19T14:45:39;10.80;99.90
20700;DHT22;10511;51.232;9.420;2023-11-19T14:48:06;10.80;99.90
20700;DHT22;10511;51.232;9.420;2023-11-19T14:50:34;10.80;99.90
20700;DHT22;10511;51.232;9.420;2023-11-19T14:53:01;10.80;99.90
20700;DHT22;10511;51.232;9.420;2023-11-19T14:55:29;10.90;99.90
20700;DHT22;10511;51.232;9.420;2023-11-19T14:57:56;10.80;99.90
20700;DHT22;10511;51.232;9.420;2023-11-19T15:00:23;10.80;99.90
20700;DHT22;10511;51.232;9.420;2023-11-19T15:02:51;10.80;99.90
20700;DHT22;10511;51.232;9.420;2023-11-19T15:05:18;10.80;99.90
20700;DHT22;10511;51.232;9.420;2023-11-19T15:07:46;10.80;99.90
20700;DHT22;10511;51.232;9.420;2023-11-19T15:10:14;10.80;99.90
20700;DHT22;10511;51.232;9.420;2023-11-19T15:12:40;10.80;99.90
20700;DHT22;10511;51.232;9.420;2023-11-19T15:15:08;10.80;99.90
20700;DHT22;10511;51.232;9.420;2023-11-19T15:17:39;10.80;99.90
20700;DHT22;10511;51.232;9.420;2023-11-19T15:20:07;10.80;99.90
20700;DHT22;10511;51.232;9.420;2023-11-19T15:22:34;10.80;99.90
20700;DHT22;10511;51.232;9.420;2023-11-19T15:25:02;10.70;99.90
20700;DHT22;10511;51.232;9.420;2023-11-19T15:27:31;10.70;99.90
20700;DHT22;10511;51.232;9.420;2023-11-19T15:29:58;10.60;99.90
20700;DHT22;10511;51.232;9.420;2023-11-19T15:32:25;10.60;99.90
20700;DHT22;10511;51.232;9.420;2023-11-19T15:34:51;10.50;99.90
20700;DHT22;10511;51.232;9.420;2023-11-19T15:37:18;10.40;99.90
20700;DHT22;10511;51.232;9.420;2023-11-19T15:39:45;10.40;99.90
20700;DHT22;10511;51.232;9.420;2023-11-19T15:42:14;10.30;99.90
20700;DHT22;10511;51.232;9.420;2023-11-19T15:44:41;10.30;99.90
20700;DHT22;10511;51.232;9.420;2023-11-19T15:47:09;10.30;99.90
20700;DHT22;10511;51.232;9.420;2023-11-19T15:49:35;10.30;99.90